CG Osprey — NBRF — position and weather

sailwx.info

Track history (hours):
 
Tides and Currents Weather Stations Pressure Air Temp Water Temp Dewpoint Dewpoint Depression Visibility Wind Speed Wind Dir Waves Ship Positions

CG Osprey

Last reported at 2018-Jun-25 15:29 UTC. Time now 2018-Jun-25 15:34 UTC.
Position N 58°27' W 135°54'.

Length 26 m; draft 1.7 m.

Type: SAR. MMSI: 366999606.

Date/timePositionNaut miles runAvg speedWind from/ knotsBaromVisibWave heightAir tempDewpointWater temp
2018-Jun-25 15:29N 58°27' W 135°54'0 0.0
2018-Jun-25 14:59N 58°27' W 135°54'0 0.1
2018-Jun-25 14:28N 58°27' W 135°54'0 0.1
2018-Jun-25 13:58N 58°27' W 135°54'0 0.0
2018-Jun-25 13:28N 58°27' W 135°54'0 0.1
2018-Jun-25 12:58N 58°27' W 135°54'0 0.0
2018-Jun-25 12:28N 58°27' W 135°54'0 0.0
2018-Jun-25 11:58N 58°27' W 135°54'0 0.1
2018-Jun-25 11:22N 58°27' W 135°54'0 0.1
2018-Jun-25 10:58N 58°27' W 135°54'0 0.0
2018-Jun-25 10:28N 58°27' W 135°54'0 0.0
2018-Jun-25 09:58N 58°27' W 135°54'0 0.0
2018-Jun-25 09:29N 58°27' W 135°54'0 0.1
2018-Jun-25 08:59N 58°27' W 135°54'0 0.0
2018-Jun-25 08:29N 58°27' W 135°54'0 0.1
2018-Jun-25 07:59N 58°27' W 135°54'0 0.0
2018-Jun-25 07:29N 58°27' W 135°54'0 0.0
2018-Jun-25 06:59N 58°27' W 135°54'0 0.1
2018-Jun-25 06:29N 58°27' W 135°54'0 0.1
2018-Jun-25 06:01N 58°27' W 135°54'0 0.7
2018-Jun-25 05:31N 58°27' W 135°53'0 0.0
2018-Jun-25 05:01N 58°27' W 135°53'0 0.0
2018-Jun-25 04:31N 58°27' W 135°53'0 0.0
2018-Jun-25 04:00N 58°27' W 135°53'0 0.0
2018-Jun-25 03:31N 58°27' W 135°53'0 0.0
2018-Jun-25 03:01N 58°27' W 135°53'0 0.0
2018-Jun-25 02:31N 58°27' W 135°53'2 3.8
2018-Jun-25 02:00N 58°26' W 135°56'612.2
2018-Jun-25 01:31N 58°31' W 136°04'1222.1
2018-Jun-25 00:57N 58°41' W 136°17'7 1.4
2018-Jun-24 19:26N 58°48' W 136°25'921.0
2018-Jun-24 19:01N 58°43' W 136°10'611.5
2018-Jun-24 18:30N 58°39' W 136°03'5 9.5
2018-Jun-24 18:00N 58°34' W 136°03'714.8
2018-Jun-24 17:30N 58°27' W 136°00'4 7.3
2018-Jun-24 17:00N 58°27' W 135°53'0 0.0
2018-Jun-24 16:29N 58°27' W 135°53'0 0.0
2018-Jun-24 15:59N 58°27' W 135°53'0 0.0
2018-Jun-24 15:29N 58°27' W 135°53'0 0.0
2018-Jun-24 14:59N 58°27' W 135°53'0 0.0
2018-Jun-24 14:29N 58°27' W 135°53'0 0.0
2018-Jun-24 13:59N 58°27' W 135°53'0 0.0
2018-Jun-24 13:29N 58°27' W 135°53'0 0.0
2018-Jun-24 12:59N 58°27' W 135°53'0 0.0
2018-Jun-24 12:30N 58°27' W 135°53'0 0.0
2018-Jun-24 12:00N 58°27' W 135°53'0 0.0
2018-Jun-24 11:30N 58°27' W 135°53'0 0.0
2018-Jun-24 11:00N 58°27' W 135°53'0 0.0
2018-Jun-24 10:29N 58°27' W 135°53'0 0.0
2018-Jun-24 09:59N 58°27' W 135°53'0 0.0
2018-Jun-24 09:29N 58°27' W 135°53'0 0.0
2018-Jun-24 08:59N 58°27' W 135°53'0 0.0
2018-Jun-24 08:29N 58°27' W 135°53'0 0.0
2018-Jun-24 07:59N 58°27' W 135°53'0 0.0
2018-Jun-24 07:29N 58°27' W 135°53'0 0.0
2018-Jun-24 06:59N 58°27' W 135°53'0 0.0
2018-Jun-24 06:30N 58°27' W 135°53'1 2.8
2018-Jun-24 06:00N 58°27' W 135°55'713.9
2018-Jun-24 05:30N 58°20' W 135°56'714.0
2018-Jun-24 05:00N 58°18' W 135°43'714.1
2018-Jun-24 04:30N 58°15' W 135°31'  
2018-Jun-20 22:20N 54°47' W 130°58'618.1
2018-Jun-20 22:00N 54°43' W 130°50'918.3
2018-Jun-20 21:30N 54°37' W 130°38'816.3
2018-Jun-20 20:59N 54°29' W 130°34'918.4
2018-Jun-20 20:30N 54°20' W 130°34'918.0
2018-Jun-20 20:00N 54°12' W 130°28'918.8
2018-Jun-20 19:30N 54°05' W 130°18'917.6
2018-Jun-20 19:00N 53°57' W 130°12'917.9
2018-Jun-20 18:30N 53°50' W 130°01'83 5.5
2018-Jun-20 03:18N 52°46' W 128°33'619.9
2018-Jun-20 03:00N 52°40' W 128°32'1020.3
2018-Jun-20 02:30N 52°30' W 128°27'1020.4
2018-Jun-20 02:00N 52°20' W 128°30'1019.5
2018-Jun-20 01:30N 52°15' W 128°16'815.1
2018-Jun-20 01:00N 52°10' W 128°07'1 0.6
2018-Jun-19 23:19N 52°09' W 128°06'2 6.6
2018-Jun-19 23:00N 52°08' W 128°08'917.9
2018-Jun-19 22:30N 52°03' W 127°56'1019.6
2018-Jun-19 22:01N 51°53' W 127°55'1121.7
2018-Jun-19 21:31N 51°42' W 127°55'1122.2
2018-Jun-19 21:00N 51°31' W 127°50'1121.4
2018-Jun-19 20:30N 51°21' W 127°52'1020.1
2018-Jun-19 20:00N 51°11' W 127°50'1019.2
2018-Jun-19 19:30N 51°01' W 127°46'1019.0
2018-Jun-19 19:00N 50°54' W 127°37'1121.5
2018-Jun-19 18:30N 50°48' W 127°23'1221.7
2018-Jun-19 17:57N 50°38' W 127°11'4 1.5
2018-Jun-19 14:58N 50°35' W 127°05'0 0.0
2018-Jun-19 14:22N 50°35' W 127°05'0 0.0
2018-Jun-19 13:25N 50°35' W 127°05'0 0.0
2018-Jun-19 12:29N 50°35' W 127°05'0 0.0
2018-Jun-19 11:56N 50°35' W 127°05'0 0.0
2018-Jun-19 11:25N 50°35' W 127°05'0 0.0
2018-Jun-19 11:00N 50°35' W 127°05'0 0.0
2018-Jun-19 10:27N 50°35' W 127°05'0 0.0
2018-Jun-19 10:00N 50°35' W 127°05'1 0.2
2018-Jun-19 06:24N 50°36' W 127°04'820.3
2018-Jun-19 06:00N 50°34' W 126°52'1122.2
2018-Jun-19 05:31N 50°31' W 126°35'1222.4
2018-Jun-19 05:00N 50°30' W 126°17'2118.6
2018-Jun-19 03:51N 50°22' W 125°46'1220.1
2018-Jun-19 03:14N 50°20' W 125°27'519.4
2018-Jun-19 03:00N 50°16' W 125°24'918.1
2018-Jun-19 02:30N 50°08' W 125°21'816.6
2018-Jun-19 02:00N 50°01' W 125°13'1019.8
2018-Jun-19 01:30N 49°54' W 125°02'1121.9
2018-Jun-19 01:00N 49°46' W 124°50'1121.9
2018-Jun-19 00:30N 49°38' W 124°39'1121.3
2018-Jun-19 00:00N 49°30' W 124°29'1121.0
2018-Jun-18 23:28N 49°24' W 124°14'3820.6
2018-Jun-18 21:37N 49°06' W 123°23'421.4
2018-Jun-18 21:25N 49°03' W 123°18'920.5
2018-Jun-18 20:59N 48°57' W 123°08'1018.3
2018-Jun-18 20:26N 48°48' W 122°60'818.4
2018-Jun-18 19:59N 48°43' W 123°10'815.5
2018-Jun-18 19:26N 48°35' W 123°13'818.3
2018-Jun-18 19:00N 48°28' W 123°06'  
Track history (hours):
 
Tides and Currents Weather Stations Pressure Air Temp Water Temp Dewpoint Dewpoint Depression Visibility Wind Speed Wind Dir Waves Ship Positions

CG Osprey

Last reported at 2018-Jun-25 15:29 UTC. Time now 2018-Jun-25 15:34 UTC.
Position N 58°27' W 135°54'.

Length 26 m; draft 1.7 m.

Type: SAR. MMSI: 366999606.

Date/timePositionNaut miles runAvg speedWind from/ knotsBaromVisibWave heightAir tempDewpointWater temp
2018-Jun-25 15:29N 58°27' W 135°54'0 0.0
2018-Jun-25 14:59N 58°27' W 135°54'0 0.1
2018-Jun-25 14:28N 58°27' W 135°54'0 0.1
2018-Jun-25 13:58N 58°27' W 135°54'0 0.0
2018-Jun-25 13:28N 58°27' W 135°54'0 0.1
2018-Jun-25 12:58N 58°27' W 135°54'0 0.0
2018-Jun-25 12:28N 58°27' W 135°54'0 0.0
2018-Jun-25 11:58N 58°27' W 135°54'0 0.1
2018-Jun-25 11:22N 58°27' W 135°54'0 0.1
2018-Jun-25 10:58N 58°27' W 135°54'0 0.0
2018-Jun-25 10:28N 58°27' W 135°54'0 0.0
2018-Jun-25 09:58N 58°27' W 135°54'0 0.0
2018-Jun-25 09:29N 58°27' W 135°54'0 0.1
2018-Jun-25 08:59N 58°27' W 135°54'0 0.0
2018-Jun-25 08:29N 58°27' W 135°54'0 0.1
2018-Jun-25 07:59N 58°27' W 135°54'0 0.0
2018-Jun-25 07:29N 58°27' W 135°54'0 0.0
2018-Jun-25 06:59N 58°27' W 135°54'0 0.1
2018-Jun-25 06:29N 58°27' W 135°54'0 0.1
2018-Jun-25 06:01N 58°27' W 135°54'0 0.7
2018-Jun-25 05:31N 58°27' W 135°53'0 0.0
2018-Jun-25 05:01N 58°27' W 135°53'0 0.0
2018-Jun-25 04:31N 58°27' W 135°53'0 0.0
2018-Jun-25 04:00N 58°27' W 135°53'0 0.0
2018-Jun-25 03:31N 58°27' W 135°53'0 0.0
2018-Jun-25 03:01N 58°27' W 135°53'0 0.0
2018-Jun-25 02:31N 58°27' W 135°53'2 3.8
2018-Jun-25 02:00N 58°26' W 135°56'612.2
2018-Jun-25 01:31N 58°31' W 136°04'1222.1
2018-Jun-25 00:57N 58°41' W 136°17'7 1.4
2018-Jun-24 19:26N 58°48' W 136°25'921.0
2018-Jun-24 19:01N 58°43' W 136°10'611.5
2018-Jun-24 18:30N 58°39' W 136°03'5 9.5
2018-Jun-24 18:00N 58°34' W 136°03'714.8
2018-Jun-24 17:30N 58°27' W 136°00'4 7.3
2018-Jun-24 17:00N 58°27' W 135°53'0 0.0
2018-Jun-24 16:29N 58°27' W 135°53'0 0.0
2018-Jun-24 15:59N 58°27' W 135°53'0 0.0
2018-Jun-24 15:29N 58°27' W 135°53'0 0.0
2018-Jun-24 14:59N 58°27' W 135°53'0 0.0
2018-Jun-24 14:29N 58°27' W 135°53'0 0.0
2018-Jun-24 13:59N 58°27' W 135°53'0 0.0
2018-Jun-24 13:29N 58°27' W 135°53'0 0.0
2018-Jun-24 12:59N 58°27' W 135°53'0 0.0
2018-Jun-24 12:30N 58°27' W 135°53'0 0.0
2018-Jun-24 12:00N 58°27' W 135°53'0 0.0
2018-Jun-24 11:30N 58°27' W 135°53'0 0.0
2018-Jun-24 11:00N 58°27' W 135°53'0 0.0
2018-Jun-24 10:29N 58°27' W 135°53'0 0.0
2018-Jun-24 09:59N 58°27' W 135°53'0 0.0
2018-Jun-24 09:29N 58°27' W 135°53'0 0.0
2018-Jun-24 08:59N 58°27' W 135°53'0 0.0
2018-Jun-24 08:29N 58°27' W 135°53'0 0.0
2018-Jun-24 07:59N 58°27' W 135°53'0 0.0
2018-Jun-24 07:29N 58°27' W 135°53'0 0.0
2018-Jun-24 06:59N 58°27' W 135°53'0 0.0
2018-Jun-24 06:30N 58°27' W 135°53'1 2.8
2018-Jun-24 06:00N 58°27' W 135°55'713.9
2018-Jun-24 05:30N 58°20' W 135°56'714.0
2018-Jun-24 05:00N 58°18' W 135°43'714.1
2018-Jun-24 04:30N 58°15' W 135°31'  
2018-Jun-20 22:20N 54°47' W 130°58'618.1
2018-Jun-20 22:00N 54°43' W 130°50'918.3
2018-Jun-20 21:30N 54°37' W 130°38'816.3
2018-Jun-20 20:59N 54°29' W 130°34'918.4
2018-Jun-20 20:30N 54°20' W 130°34'918.0
2018-Jun-20 20:00N 54°12' W 130°28'918.8
2018-Jun-20 19:30N 54°05' W 130°18'917.6
2018-Jun-20 19:00N 53°57' W 130°12'917.9
2018-Jun-20 18:30N 53°50' W 130°01'83 5.5
2018-Jun-20 03:18N 52°46' W 128°33'619.9
2018-Jun-20 03:00N 52°40' W 128°32'1020.3
2018-Jun-20 02:30N 52°30' W 128°27'1020.4
2018-Jun-20 02:00N 52°20' W 128°30'1019.5
2018-Jun-20 01:30N 52°15' W 128°16'815.1
2018-Jun-20 01:00N 52°10' W 128°07'1 0.6
2018-Jun-19 23:19N 52°09' W 128°06'2 6.6
2018-Jun-19 23:00N 52°08' W 128°08'917.9
2018-Jun-19 22:30N 52°03' W 127°56'1019.6
2018-Jun-19 22:01N 51°53' W 127°55'1121.7
2018-Jun-19 21:31N 51°42' W 127°55'1122.2
2018-Jun-19 21:00N 51°31' W 127°50'1121.4
2018-Jun-19 20:30N 51°21' W 127°52'1020.1
2018-Jun-19 20:00N 51°11' W 127°50'1019.2
2018-Jun-19 19:30N 51°01' W 127°46'1019.0
2018-Jun-19 19:00N 50°54' W 127°37'1121.5
2018-Jun-19 18:30N 50°48' W 127°23'1221.7
2018-Jun-19 17:57N 50°38' W 127°11'4 1.5
2018-Jun-19 14:58N 50°35' W 127°05'0 0.0
2018-Jun-19 14:22N 50°35' W 127°05'0 0.0
2018-Jun-19 13:25N 50°35' W 127°05'0 0.0
2018-Jun-19 12:29N 50°35' W 127°05'0 0.0
2018-Jun-19 11:56N 50°35' W 127°05'0 0.0
2018-Jun-19 11:25N 50°35' W 127°05'0 0.0
2018-Jun-19 11:00N 50°35' W 127°05'0 0.0
2018-Jun-19 10:27N 50°35' W 127°05'0 0.0
2018-Jun-19 10:00N 50°35' W 127°05'1 0.2
2018-Jun-19 06:24N 50°36' W 127°04'820.3
2018-Jun-19 06:00N 50°34' W 126°52'1122.2
2018-Jun-19 05:31N 50°31' W 126°35'1222.4
2018-Jun-19 05:00N 50°30' W 126°17'2118.6
2018-Jun-19 03:51N 50°22' W 125°46'1220.1
2018-Jun-19 03:14N 50°20' W 125°27'519.4
2018-Jun-19 03:00N 50°16' W 125°24'918.1
2018-Jun-19 02:30N 50°08' W 125°21'816.6
2018-Jun-19 02:00N 50°01' W 125°13'1019.8
2018-Jun-19 01:30N 49°54' W 125°02'1121.9
2018-Jun-19 01:00N 49°46' W 124°50'1121.9
2018-Jun-19 00:30N 49°38' W 124°39'1121.3
2018-Jun-19 00:00N 49°30' W 124°29'1121.0
2018-Jun-18 23:28N 49°24' W 124°14'3820.6
2018-Jun-18 21:37N 49°06' W 123°23'421.4
2018-Jun-18 21:25N 49°03' W 123°18'920.5
2018-Jun-18 20:59N 48°57' W 123°08'1018.3
2018-Jun-18 20:26N 48°48' W 122°60'818.4
2018-Jun-18 19:59N 48°43' W 123°10'815.5
2018-Jun-18 19:26N 48°35' W 123°13'818.3
2018-Jun-18 19:00N 48°28' W 123°06'  

Dump ship's entire track history